createdAt,value
2017-05-29T00:01:07.627Z,16.67
2017-05-29T00:02:16.850Z,16.71
2017-05-29T00:03:26.388Z,16.67
2017-05-29T00:04:35.610Z,16.63
2017-05-29T00:05:44.882Z,16.6
2017-05-29T00:06:53.775Z,16.57
2017-05-29T00:08:02.668Z,16.52
2017-05-29T00:09:11.899Z,16.57
2017-05-29T00:10:21.445Z,16.64
2017-05-29T00:11:30.740Z,16.5
2017-05-29T00:12:39.630Z,16.5
2017-05-29T00:13:48.847Z,16.5
2017-05-29T00:14:58.394Z,16.5
2017-05-29T00:16:07.633Z,16.34
2017-05-29T00:17:16.575Z,16.41
2017-05-29T00:18:25.788Z,16.41
2017-05-29T00:19:35.010Z,16.38
2017-05-29T00:20:44.882Z,16.35
2017-05-29T00:21:54.116Z,16.35
2017-05-29T00:23:03.157Z,16.38
2017-05-29T00:24:12.372Z,16.35
2017-05-29T00:25:21.596Z,16.31
2017-05-29T00:26:30.489Z,16.28
2017-05-29T00:27:39.381Z,16.35
2017-05-29T00:28:48.749Z,16.24
2017-05-29T00:29:57.976Z,16.23
2017-05-29T00:31:07.193Z,16.27
2017-05-29T00:32:16.087Z,16.2
2017-05-29T00:33:24.987Z,16.24
2017-05-29T00:34:34.462Z,16.17
2017-05-29T00:35:43.688Z,16.09
2017-05-29T00:36:52.579Z,16.09
2017-05-29T00:38:02.126Z,16.05
2017-05-29T00:39:11.013Z,16.07
2017-05-29T00:40:19.911Z,16.12
2017-05-29T00:41:28.801Z,16.09
2017-05-29T00:42:37.696Z,16.02
2017-05-29T00:43:47.563Z,16
2017-05-29T00:44:57.104Z,16
2017-05-29T00:46:06.006Z,16.02
2017-05-29T00:47:15.232Z,15.97
2017-05-29T00:48:24.771Z,15.92
2017-05-29T00:49:33.985Z,15.93
2017-05-29T00:50:42.877Z,15.96
2017-05-29T00:51:52.350Z,15.94
2017-05-29T00:53:01.919Z,15.96
2017-05-29T00:54:11.136Z,15.9
2017-05-29T00:55:20.356Z,15.87
2017-05-29T00:56:29.307Z,15.9
2017-05-29T00:57:38.823Z,15.93
2017-05-29T00:58:48.041Z,15.89
2017-05-29T00:59:57.271Z,15.89
2017-05-29T01:01:06.168Z,15.86
2017-05-29T01:02:15.063Z,15.82
2017-05-29T01:03:24.383Z,15.84
2017-05-29T01:04:33.924Z,15.83
2017-05-29T01:05:43.148Z,15.78
2017-05-29T01:06:53.012Z,15.86
2017-05-29T01:08:02.554Z,15.8
2017-05-29T01:09:12.730Z,15.8
2017-05-29T01:10:22.279Z,15.83
2017-05-29T01:11:31.176Z,15.76
2017-05-29T01:12:40.394Z,15.74
2017-05-29T01:13:50.278Z,15.65
2017-05-29T01:14:59.974Z,15.74
2017-05-29T01:16:09.193Z,15.68
2017-05-29T01:17:18.088Z,15.64
2017-05-29T01:18:27.118Z,15.74
2017-05-29T01:19:36.341Z,15.78
2017-05-29T01:20:45.334Z,15.65
2017-05-29T01:21:54.555Z,15.62
2017-05-29T01:23:03.459Z,15.64
2017-05-29T01:24:12.683Z,15.74
2017-05-29T01:25:22.227Z,15.68
2017-05-29T01:26:31.418Z,15.65
2017-05-29T01:27:40.636Z,15.68
2017-05-29T01:28:49.860Z,15.65
2017-05-29T01:29:59.739Z,15.62
2017-05-29T01:31:09.278Z,15.56
2017-05-29T01:32:18.327Z,15.65
2017-05-29T01:33:28.233Z,15.65
2017-05-29T01:34:37.127Z,15.64
2017-05-29T01:35:46.346Z,15.6
2017-05-29T01:36:55.573Z,15.53
2017-05-29T01:38:05.268Z,15.64
2017-05-29T01:39:14.165Z,15.62
2017-05-29T01:40:23.708Z,15.56
2017-05-29T01:41:32.928Z,15.56
2017-05-29T01:42:41.822Z,15.6
2017-05-29T01:43:51.616Z,15.59
2017-05-29T01:45:00.511Z,15.57
2017-05-29T01:46:09.399Z,15.62
2017-05-29T01:47:18.296Z,15.67
2017-05-29T01:48:27.516Z,15.72
2017-05-29T01:49:36.557Z,15.75
2017-05-29T01:50:45.448Z,15.68
2017-05-29T01:51:54.671Z,15.67
2017-05-29T01:53:04.229Z,15.64
2017-05-29T01:54:13.777Z,15.68
2017-05-29T01:55:23.003Z,15.59
2017-05-29T01:56:31.904Z,15.65
2017-05-29T01:57:40.799Z,15.65
2017-05-29T01:58:50.341Z,15.68
2017-05-29T01:59:59.893Z,15.68
2017-05-29T02:01:09.225Z,15.68
2017-05-29T02:02:18.116Z,15.69
2017-05-29T02:03:27.009Z,15.71
2017-05-29T02:04:36.225Z,15.69
2017-05-29T02:05:45.116Z,15.67
2017-05-29T02:06:54.163Z,15.78
2017-05-29T02:08:03.055Z,15.8
2017-05-29T02:09:11.946Z,15.76
2017-05-29T02:10:21.490Z,15.83
2017-05-29T02:11:30.385Z,15.9
2017-05-29T02:12:39.755Z,15.93
2017-05-29T02:13:49.301Z,16
2017-05-29T02:14:58.525Z,15.96
2017-05-29T02:16:07.416Z,16.04
2017-05-29T02:17:16.310Z,16.14
2017-05-29T02:18:25.690Z,16.02
2017-05-29T02:19:35.231Z,16.01
2017-05-29T02:20:44.450Z,16.01
2017-05-29T02:21:53.361Z,15.94
2017-05-29T02:23:02.254Z,16.01
2017-05-29T02:24:11.624Z,16
2017-05-29T02:25:20.522Z,16.01
2017-05-29T02:26:29.440Z,15.89
2017-05-29T02:27:38.661Z,15.92
2017-05-29T02:28:47.882Z,16.04
2017-05-29T02:29:57.738Z,15.93
2017-05-29T02:31:06.957Z,15.94
2017-05-29T02:32:15.848Z,15.97
2017-05-29T02:33:24.746Z,15.97
2017-05-29T02:34:33.647Z,15.96
2017-05-29T02:35:42.688Z,15.93
2017-05-29T02:36:51.904Z,15.94
2017-05-29T02:38:00.800Z,15.97
2017-05-29T02:39:09.700Z,15.96
2017-05-29T02:40:18.606Z,15.96
2017-05-29T02:41:27.971Z,16
2017-05-29T02:42:36.862Z,15.97
2017-05-29T02:43:46.436Z,15.93
2017-05-29T02:44:55.335Z,16
2017-05-29T02:46:04.551Z,16.02
2017-05-29T02:47:13.817Z,16.12
2017-05-29T02:48:22.714Z,16.08
2017-05-29T02:49:31.933Z,16.11
2017-05-29T02:50:40.825Z,16.08
2017-05-29T02:51:50.112Z,16.17
2017-05-29T02:52:59.658Z,16.24
2017-05-29T02:54:09.202Z,16.12
2017-05-29T02:55:18.104Z,16.08
2017-05-29T02:56:27.002Z,16.07
2017-05-29T02:57:36.547Z,16.01
2017-05-29T02:58:45.698Z,15.97
2017-05-29T02:59:55.243Z,15.97
2017-05-29T03:01:04.469Z,15.97
2017-05-29T03:02:14.013Z,15.9
2017-05-29T03:03:23.293Z,15.96
2017-05-29T03:04:32.990Z,16.02
2017-05-29T03:05:42.529Z,15.97
2017-05-29T03:06:51.754Z,16
2017-05-29T03:08:00.652Z,16.08
2017-05-29T03:09:09.547Z,16.05
2017-05-29T03:10:18.594Z,16.01
2017-05-29T03:11:27.818Z,16.02
2017-05-29T03:12:37.035Z,16.02
2017-05-29T03:13:46.254Z,15.94
2017-05-29T03:14:55.475Z,15.97
2017-05-29T03:16:04.839Z,16.07
2017-05-29T03:17:14.059Z,16.27
2017-05-29T03:18:23.607Z,16.42
2017-05-29T03:19:32.498Z,16.35
2017-05-29T03:20:41.730Z,16.2
2017-05-29T03:21:51.646Z,16.15
2017-05-29T03:23:00.863Z,16.12
2017-05-29T03:24:10.084Z,16.11
2017-05-29T03:25:18.974Z,16.14
2017-05-29T03:26:28.197Z,16.05
2017-05-29T03:27:37.241Z,16.01
2017-05-29T03:28:46.467Z,16.17
2017-05-29T03:29:56.068Z,16.17
2017-05-29T03:31:05.286Z,16.15
2017-05-29T03:32:14.505Z,16.12
2017-05-29T03:33:23.550Z,16.31
2017-05-29T03:34:33.426Z,16.27
2017-05-29T03:35:42.316Z,16.17
2017-05-29T03:36:51.857Z,16.17
2017-05-29T03:38:01.133Z,16.05
2017-05-29T03:39:10.982Z,16.09
2017-05-29T03:40:20.522Z,16.23
2017-05-29T03:41:29.420Z,16.21
2017-05-29T03:42:38.315Z,16.31
2017-05-29T03:43:47.539Z,16.3
2017-05-29T03:44:56.489Z,16.35
2017-05-29T03:46:05.705Z,16.34
2017-05-29T03:47:14.919Z,16.25
2017-05-29T03:48:24.140Z,16.12
2017-05-29T03:49:33.363Z,16.12
2017-05-29T03:50:42.582Z,16.01
2017-05-29T03:51:51.475Z,15.97
2017-05-29T03:53:00.696Z,15.97
2017-05-29T03:54:09.917Z,15.96
2017-05-29T03:55:19.460Z,15.94
2017-05-29T03:56:29.154Z,15.96
2017-05-29T03:57:38.694Z,15.92
2017-05-29T03:58:48.244Z,15.96
2017-05-29T03:59:57.791Z,16
2017-05-29T04:01:06.696Z,15.9
2017-05-29T04:02:16.237Z,15.94
2017-05-29T04:03:25.778Z,15.93
2017-05-29T04:04:34.680Z,15.96
2017-05-29T04:05:43.909Z,15.9
2017-05-29T04:06:52.803Z,15.9
2017-05-29T04:08:02.394Z,15.87
2017-05-29T04:09:11.941Z,15.94
2017-05-29T04:10:21.486Z,15.97
2017-05-29T04:11:30.375Z,15.97
2017-05-29T04:12:39.270Z,15.9
2017-05-29T04:13:48.808Z,15.94
2017-05-29T04:14:58.353Z,16.02
2017-05-29T04:16:07.570Z,15.9
2017-05-29T04:17:16.853Z,15.96
2017-05-29T04:18:26.405Z,16.08
2017-05-29T04:19:35.446Z,16.01
2017-05-29T04:20:44.340Z,15.97
2017-05-29T04:21:53.558Z,16
2017-05-29T04:23:02.774Z,15.92
2017-05-29T04:24:11.993Z,16.02
2017-05-29T04:25:21.541Z,16.04
2017-05-29T04:26:31.085Z,15.97
2017-05-29T04:27:39.977Z,16.01
2017-05-29T04:28:49.206Z,16
2017-05-29T04:29:58.431Z,16.01
2017-05-29T04:31:07.973Z,16.07
2017-05-29T04:32:17.190Z,16.08
2017-05-29T04:33:26.432Z,16.21
2017-05-29T04:34:36.309Z,16.11
2017-05-29T04:35:45.529Z,16.21
2017-05-29T04:36:54.572Z,16.21
2017-05-29T04:38:03.795Z,16.41
2017-05-29T04:39:13.017Z,16.38
2017-05-29T04:40:22.560Z,16.3
2017-05-29T04:41:31.783Z,16.27
2017-05-29T04:42:41.008Z,16.2
2017-05-29T04:43:49.902Z,16.11
2017-05-29T04:44:59.130Z,16.23
2017-05-29T04:46:08.353Z,16.23
2017-05-29T04:47:17.249Z,16.24
2017-05-29T04:48:26.570Z,16.25
2017-05-29T04:49:35.469Z,16.2
2017-05-29T04:50:44.363Z,16.24
2017-05-29T04:51:53.583Z,16.24
2017-05-29T04:53:02.803Z,16.21
2017-05-29T04:54:12.499Z,16.23
2017-05-29T04:55:21.393Z,16.23
2017-05-29T04:56:30.291Z,16.24
2017-05-29T04:57:39.512Z,16.21
2017-05-29T04:58:48.729Z,16.05
2017-05-29T04:59:57.722Z,16.15
2017-05-29T05:01:06.628Z,16.24
2017-05-29T05:02:15.527Z,16.11
2017-05-29T05:03:25.079Z,16.08
2017-05-29T05:04:33.971Z,16.15
2017-05-29T05:05:42.966Z,16.12
2017-05-29T05:06:52.187Z,16.12
2017-05-29T05:08:01.733Z,16.12
2017-05-29T05:09:10.952Z,16.14
2017-05-29T05:10:20.167Z,16.14
2017-05-29T05:11:29.071Z,16.2
2017-05-29T05:12:38.294Z,16.12
2017-05-29T05:13:47.195Z,16.12
2017-05-29T05:14:56.742Z,16.25
2017-05-29T05:16:06.293Z,16.23
2017-05-29T05:17:15.660Z,16.25
2017-05-29T05:18:24.881Z,16.25
2017-05-29T05:19:34.761Z,16.27
2017-05-29T05:20:43.991Z,16.33
2017-05-29T05:21:53.212Z,16.3
2017-05-29T05:23:02.262Z,16.33
2017-05-29T05:24:11.483Z,16.31
2017-05-29T05:25:20.387Z,16.31
2017-05-29T05:26:29.287Z,16.28
2017-05-29T05:27:38.183Z,16.35
2017-05-29T05:28:47.933Z,16.35
2017-05-29T05:29:56.831Z,16.34
2017-05-29T05:31:06.056Z,16.43
2017-05-29T05:32:15.276Z,16.52
2017-05-29T05:33:24.173Z,16.5
2017-05-29T05:34:34.290Z,16.57
2017-05-29T05:35:43.193Z,16.66
2017-05-29T05:36:52.084Z,16.71
2017-05-29T05:38:01.311Z,16.7
2017-05-29T05:39:10.211Z,16.73
2017-05-29T05:40:19.583Z,16.78
2017-05-29T05:41:28.806Z,16.73
2017-05-29T05:42:38.101Z,16.79
2017-05-29T05:43:47.324Z,16.78
2017-05-29T05:44:56.548Z,16.88
2017-05-29T05:46:06.575Z,16.85
2017-05-29T05:47:15.474Z,16.79
2017-05-29T05:48:24.371Z,16.68
2017-05-29T05:49:33.920Z,16.53
2017-05-29T05:50:43.139Z,16.7
2017-05-29T05:51:52.192Z,16.73
2017-05-29T05:53:01.088Z,16.82
2017-05-29T05:54:09.984Z,16.78
2017-05-29T05:55:18.881Z,16.81
2017-05-29T05:56:27.779Z,16.85
2017-05-29T05:57:37.030Z,16.89
2017-05-29T05:58:46.579Z,16.81
2017-05-29T05:59:55.809Z,16.89
2017-05-29T06:01:04.712Z,16.83
2017-05-29T06:02:13.614Z,16.88
2017-05-29T06:03:22.512Z,16.83
2017-05-29T06:04:32.060Z,16.83
2017-05-29T06:05:40.956Z,16.89
2017-05-29T06:06:50.178Z,16.96
2017-05-29T06:07:59.074Z,16.93
2017-05-29T06:09:08.364Z,17
2017-05-29T06:10:17.592Z,17.04
2017-05-29T06:11:26.811Z,17.03
2017-05-29T06:12:36.038Z,17.03
2017-05-29T06:13:45.257Z,17.06
2017-05-29T06:14:54.636Z,17.15
2017-05-29T06:16:03.865Z,17.21
2017-05-29T06:17:13.086Z,17.28
2017-05-29T06:18:21.983Z,17.34
2017-05-29T06:19:31.203Z,17.4
2017-05-29T06:20:40.254Z,17.44
2017-05-29T06:21:49.490Z,17.48
2017-05-29T06:22:58.393Z,17.48
2017-05-29T06:24:07.297Z,17.54
2017-05-29T06:25:16.514Z,17.46
2017-05-29T06:26:25.560Z,17.63
2017-05-29T06:27:34.785Z,17.54
2017-05-29T06:28:44.333Z,17.63
2017-05-29T06:29:53.236Z,17.56
2017-05-29T06:31:02.146Z,17.58
2017-05-29T06:32:11.842Z,17.58
2017-05-29T06:33:20.739Z,17.54
2017-05-29T06:34:29.705Z,17.66
2017-05-29T06:35:38.927Z,17.66
2017-05-29T06:36:47.825Z,17.7
2017-05-29T06:37:57.137Z,17.7
2017-05-29T06:39:06.363Z,17.7
2017-05-29T06:40:15.261Z,17.63
2017-05-29T06:41:24.483Z,17.66
2017-05-29T06:42:33.376Z,17.66
2017-05-29T06:43:42.750Z,17.71
2017-05-29T06:44:52.300Z,17.75
2017-05-29T06:46:01.845Z,17.81
2017-05-29T06:47:11.078Z,17.79
2017-05-29T06:48:20.303Z,17.75
2017-05-29T06:49:29.785Z,17.78
2017-05-29T06:50:39.333Z,17.74
2017-05-29T06:51:48.231Z,17.81
2017-05-29T06:52:57.454Z,17.81
2017-05-29T06:54:06.679Z,17.74
2017-05-29T06:55:15.904Z,17.68
2017-05-29T06:56:24.806Z,17.71
2017-05-29T06:57:34.684Z,17.78
2017-05-29T06:58:43.922Z,17.71
2017-05-29T06:59:52.815Z,17.79
2017-05-29T07:01:03.082Z,17.74
2017-05-29T07:02:12.629Z,17.92
2017-05-29T07:03:21.852Z,17.89
2017-05-29T07:04:31.137Z,17.9
2017-05-29T07:05:40.692Z,17.92
2017-05-29T07:06:50.113Z,17.79
2017-05-29T07:07:59.342Z,17.9
2017-05-29T07:09:08.246Z,17.95
2017-05-29T07:10:17.142Z,17.97
2017-05-29T07:11:26.040Z,18
2017-05-29T07:12:35.412Z,18.03
2017-05-29T07:13:44.966Z,18.05
2017-05-29T07:14:53.874Z,18.15
2017-05-29T07:16:03.105Z,18.12
2017-05-29T07:17:12.979Z,18.32
2017-05-29T07:18:22.307Z,18.29
2017-05-29T07:19:31.538Z,18.32
2017-05-29T07:20:40.444Z,18.33
2017-05-29T07:21:50.322Z,18.29
2017-05-29T07:22:59.228Z,18.33
2017-05-29T07:24:08.955Z,18.39
2017-05-29T07:25:17.886Z,18.41
2017-05-29T07:26:26.785Z,18.55
2017-05-29T07:27:35.687Z,18.5
2017-05-29T07:28:45.236Z,18.57
2017-05-29T07:29:54.296Z,18.52
2017-05-29T07:31:03.521Z,18.6
2017-05-29T07:32:13.087Z,18.63
2017-05-29T07:33:21.988Z,18.62
2017-05-29T07:34:31.212Z,18.63
2017-05-29T07:35:40.311Z,18.72
2017-05-29T07:36:49.212Z,18.67
2017-05-29T07:37:58.795Z,18.81
2017-05-29T07:39:07.696Z,18.62
2017-05-29T07:40:16.923Z,18.65
2017-05-29T07:41:26.247Z,18.69
2017-05-29T07:42:35.472Z,18.66
2017-05-29T07:43:45.024Z,18.65
2017-05-29T07:44:54.267Z,18.67
2017-05-29T07:46:04.144Z,18.66
2017-05-29T07:47:13.422Z,18.78
2017-05-29T07:48:22.971Z,18.84
2017-05-29T07:49:32.530Z,18.85
2017-05-29T07:50:41.447Z,18.72
2017-05-29T07:51:50.349Z,18.75
2017-05-29T07:52:59.675Z,18.7
2017-05-29T07:54:08.576Z,18.7
2017-05-29T07:55:17.479Z,18.67
2017-05-29T07:56:26.709Z,18.76
2017-05-29T07:57:35.933Z,18.76
2017-05-29T07:58:45.207Z,18.69
2017-05-29T07:59:54.108Z,18.65
2017-05-29T08:01:03.019Z,18.6
2017-05-29T08:02:12.895Z,18.75
2017-05-29T08:03:21.790Z,18.82
2017-05-29T08:04:30.793Z,18.95
2017-05-29T08:05:39.689Z,18.91
2017-05-29T08:06:48.916Z,18.94
2017-05-29T08:07:58.471Z,18.91
2017-05-29T08:09:07.369Z,19.06
2017-05-29T08:10:17.274Z,19.21
2017-05-29T08:11:26.497Z,19.22
2017-05-29T08:12:35.460Z,19.19
2017-05-29T08:13:44.695Z,19.31
2017-05-29T08:14:53.920Z,19.31
2017-05-29T08:16:03.898Z,19.23
2017-05-29T08:17:13.448Z,19.29
2017-05-29T08:18:22.346Z,19.25
2017-05-29T08:19:31.631Z,19.16
2017-05-29T08:20:40.528Z,19.16
2017-05-29T08:21:49.579Z,19.43
2017-05-29T08:22:58.479Z,19.44
2017-05-29T08:24:08.354Z,19.62
2017-05-29T08:25:17.902Z,19.71
2017-05-29T08:26:27.449Z,19.71
2017-05-29T08:27:36.967Z,19.62
2017-05-29T08:28:46.521Z,19.66
2017-05-29T08:29:55.436Z,19.69
2017-05-29T08:31:04.669Z,19.71
2017-05-29T08:32:13.891Z,19.61
2017-05-29T08:33:23.469Z,19.62
2017-05-29T08:34:32.698Z,19.69
2017-05-29T08:35:41.920Z,19.71
2017-05-29T08:36:50.820Z,19.78
2017-05-29T08:37:59.718Z,19.84
2017-05-29T08:39:09.022Z,19.84
2017-05-29T08:40:18.252Z,19.95
2017-05-29T08:41:27.475Z,19.88
2017-05-29T08:42:36.379Z,19.92
2017-05-29T08:43:45.926Z,20.1
2017-05-29T08:44:55.157Z,20.05
2017-05-29T08:46:04.383Z,20.03
2017-05-29T08:47:14.268Z,20.06
2017-05-29T08:48:23.167Z,20.08
2017-05-29T08:49:32.071Z,20.11
2017-05-29T08:50:41.236Z,20.17
2017-05-29T08:51:50.149Z,20.36
2017-05-29T08:52:59.375Z,20.35
2017-05-29T08:54:08.275Z,20.43
2017-05-29T08:55:17.180Z,20.57
2017-05-29T08:56:26.129Z,20.66
2017-05-29T08:57:35.035Z,20.72
2017-05-29T08:58:44.586Z,20.61
2017-05-29T08:59:53.488Z,20.58
2017-05-29T09:01:02.710Z,20.69
2017-05-29T09:02:11.662Z,20.79
2017-05-29T09:03:20.885Z,20.94
2017-05-29T09:04:29.781Z,20.95
2017-05-29T09:05:38.682Z,21.07
2017-05-29T09:06:47.905Z,21.19
2017-05-29T09:07:57.240Z,21.1
2017-05-29T09:09:06.468Z,21.14
2017-05-29T09:10:15.693Z,21.16
2017-05-29T09:11:24.920Z,21.35
2017-05-29T09:12:33.822Z,21.37
2017-05-29T09:13:43.210Z,21.42
2017-05-29T09:14:52.765Z,21.49
2017-05-29T09:16:01.992Z,21.49
2017-05-29T09:17:11.214Z,21.61
2017-05-29T09:18:20.118Z,21.64
2017-05-29T09:19:29.170Z,21.65
2017-05-29T09:20:38.070Z,21.56
2017-05-29T09:21:47.302Z,21.52
2017-05-29T09:22:56.855Z,21.43
2017-05-29T09:24:06.408Z,21.35
2017-05-29T09:25:15.362Z,21.27
2017-05-29T09:26:24.260Z,21.32
2017-05-29T09:27:33.163Z,21.25
2017-05-29T09:28:42.392Z,21.32
2017-05-29T09:29:51.288Z,21.43
2017-05-29T09:31:00.441Z,21.47
2017-05-29T09:32:09.347Z,21.61
2017-05-29T09:33:18.246Z,21.65
2017-05-29T09:34:27.477Z,21.68
2017-05-29T09:35:36.701Z,21.67
2017-05-29T09:36:45.756Z,21.59
2017-05-29T09:37:54.655Z,21.64
2017-05-29T09:39:03.885Z,21.62
2017-05-29T09:40:13.117Z,21.79
2017-05-29T09:41:22.674Z,21.83
2017-05-29T09:42:31.574Z,21.83
2017-05-29T09:43:40.819Z,21.83
2017-05-29T09:44:50.054Z,21.9
2017-05-29T09:45:59.603Z,21.96
2017-05-29T09:47:08.503Z,21.88
2017-05-29T09:48:17.882Z,21.96
2017-05-29T09:49:27.103Z,22.02
2017-05-29T09:50:36.977Z,22.03
2017-05-29T09:51:45.889Z,22.05
2017-05-29T09:52:55.116Z,22.02
2017-05-29T09:54:04.489Z,22
2017-05-29T09:55:13.716Z,22.03
2017-05-29T09:56:22.614Z,22.1
2017-05-29T09:57:31.840Z,22.2
2017-05-29T09:58:40.741Z,22.18
2017-05-29T09:59:50.032Z,22.18
2017-05-29T10:00:59.263Z,22.18
2017-05-29T10:02:08.491Z,22.21
2017-05-29T10:03:17.727Z,22.33
2017-05-29T10:04:27.619Z,22.35
2017-05-29T10:05:36.740Z,22.39
2017-05-29T10:06:45.963Z,22.39
2017-05-29T10:07:55.198Z,22.49
2017-05-29T10:09:04.757Z,22.47
2017-05-29T10:10:13.984Z,22.49
2017-05-29T10:11:23.364Z,22.43
2017-05-29T10:12:32.260Z,22.47
2017-05-29T10:13:41.158Z,22.37
2017-05-29T10:14:50.060Z,22.55
2017-05-29T10:15:59.617Z,22.55
2017-05-29T10:17:09.314Z,22.73
2017-05-29T10:18:18.543Z,22.8
2017-05-29T10:19:27.442Z,22.8
2017-05-29T10:20:36.349Z,22.86
2017-05-29T10:21:45.567Z,22.83
2017-05-29T10:22:55.749Z,23.04
2017-05-29T10:24:04.976Z,23.07
2017-05-29T10:25:14.528Z,23.15
2017-05-29T10:26:23.753Z,23.23
2017-05-29T10:27:32.977Z,23.23
2017-05-29T10:28:42.076Z,23.33
2017-05-29T10:29:50.973Z,23.4
2017-05-29T10:31:00.202Z,23.4
2017-05-29T10:32:09.097Z,23.53
2017-05-29T10:33:18.000Z,23.51
2017-05-29T10:34:26.999Z,23.63
2017-05-29T10:35:35.901Z,23.53
2017-05-29T10:36:45.124Z,23.54
2017-05-29T10:37:54.349Z,23.57
2017-05-29T10:39:03.309Z,23.55
2017-05-29T10:40:12.357Z,23.68
2017-05-29T10:41:21.257Z,23.61
2017-05-29T10:42:30.156Z,23.65
2017-05-29T10:43:39.060Z,23.7
2017-05-29T10:44:47.965Z,23.76
2017-05-29T10:45:57.348Z,23.87
2017-05-29T10:47:06.248Z,23.84
2017-05-29T10:48:15.152Z,23.9
2017-05-29T10:49:24.069Z,23.9
2017-05-29T10:50:32.971Z,23.88
2017-05-29T10:51:42.254Z,23.83
2017-05-29T10:52:51.481Z,23.72
2017-05-29T10:54:00.381Z,23.73
2017-05-29T10:55:09.288Z,23.84
2017-05-29T10:56:18.192Z,23.94
2017-05-29T10:57:27.206Z,23.97
2017-05-29T10:58:36.433Z,24.02
2017-05-29T10:59:45.717Z,24.2
2017-05-29T11:00:54.613Z,24.25
2017-05-29T11:02:03.517Z,24.3
2017-05-29T11:03:12.751Z,24.21
2017-05-29T11:04:21.650Z,24.18
2017-05-29T11:05:30.546Z,24.43
2017-05-29T11:06:39.445Z,24.55
2017-05-29T11:07:48.345Z,24.53
2017-05-29T11:08:57.344Z,24.61
2017-05-29T11:10:06.259Z,24.58
2017-05-29T11:11:15.176Z,24.61
2017-05-29T11:12:24.532Z,24.8
2017-05-29T11:13:33.434Z,24.78
2017-05-29T11:14:42.431Z,24.78
2017-05-29T11:15:51.332Z,24.84
2017-05-29T11:17:00.563Z,24.81
2017-05-29T11:18:09.461Z,24.87
2017-05-29T11:19:18.686Z,24.88
2017-05-29T11:20:27.839Z,25
2017-05-29T11:21:36.738Z,25.17
2017-05-29T11:22:45.637Z,25.38
2017-05-29T11:23:55.190Z,25.45
2017-05-29T11:25:04.091Z,25.33
2017-05-29T11:26:13.058Z,25.4
2017-05-29T11:27:21.960Z,25.39
2017-05-29T11:28:31.833Z,25.39
2017-05-29T11:29:40.731Z,25.38
2017-05-29T11:30:49.648Z,25.51
2017-05-29T11:31:59.028Z,25.62
2017-05-29T11:33:07.929Z,25.82
2017-05-29T11:34:16.835Z,25.88
2017-05-29T11:35:26.397Z,25.85
2017-05-29T11:36:35.299Z,25.95
2017-05-29T11:37:44.250Z,25.94
2017-05-29T11:38:53.474Z,26.05
2017-05-29T11:40:02.371Z,26.06
2017-05-29T11:41:11.275Z,26.07
2017-05-29T11:42:20.178Z,26.2
2017-05-29T11:43:29.327Z,26.02
2017-05-29T11:44:38.230Z,25.52
2017-05-29T11:45:47.132Z,25.79
2017-05-29T11:46:56.036Z,25.97
2017-05-29T11:48:05.590Z,26.18
2017-05-29T11:49:14.503Z,26.21
2017-05-29T11:50:23.413Z,26.36
2017-05-29T11:51:32.656Z,26.35
2017-05-29T11:52:41.884Z,26.44
2017-05-29T11:53:51.122Z,26.48
2017-05-29T11:55:00.173Z,26.6
2017-05-29T11:56:09.079Z,26.92
2017-05-29T11:57:17.983Z,26.87
2017-05-29T11:58:26.888Z,27.04
2017-05-29T11:59:36.172Z,27.21
2017-05-29T12:00:45.485Z,27.47
2017-05-29T12:01:54.802Z,27.37
2017-05-29T12:03:03.708Z,27.44
2017-05-29T12:04:12.629Z,27.4
2017-05-29T12:05:21.905Z,27.36
2017-05-29T12:06:31.213Z,27.43
2017-05-29T12:07:40.464Z,27.46
2017-05-29T12:08:49.381Z,27.82
2017-05-29T12:09:58.289Z,27.93
2017-05-29T12:11:07.520Z,28.02
2017-05-29T12:12:16.603Z,28
2017-05-29T12:13:25.565Z,28.03
2017-05-29T12:14:34.507Z,28.17
2017-05-29T12:15:43.429Z,28.25
2017-05-29T12:16:52.681Z,28.36
2017-05-29T12:18:02.068Z,28.37
2017-05-29T12:19:11.315Z,28.34
2017-05-29T12:20:20.229Z,28.36
2017-05-29T12:21:29.142Z,28.39
2017-05-29T12:22:38.080Z,28.4
2017-05-29T12:23:47.013Z,28.44
2017-05-29T12:24:55.936Z,28.61
2017-05-29T12:26:04.903Z,28.56
2017-05-29T12:27:13.873Z,28.44
2017-05-29T12:28:22.801Z,28.43
2017-05-29T12:29:31.725Z,28.39
2017-05-29T12:30:40.638Z,28.41
2017-05-29T12:31:49.554Z,28.54
2017-05-29T12:32:58.796Z,28.52
2017-05-29T12:34:07.706Z,28.55
2017-05-29T12:35:17.097Z,28.59
2017-05-29T12:36:26.014Z,28.83
2017-05-29T12:37:34.928Z,28.8
2017-05-29T12:38:43.847Z,29.04
2017-05-29T12:39:53.090Z,29.08
2017-05-29T12:41:02.387Z,29.15
2017-05-29T12:42:11.308Z,29.11
2017-05-29T12:43:20.548Z,29.06
2017-05-29T12:44:29.461Z,29.05
2017-05-29T12:45:38.384Z,29.26
2017-05-29T12:46:47.455Z,29.28
2017-05-29T12:47:56.374Z,29.52
2017-05-29T12:49:05.624Z,29.48
2017-05-29T12:50:14.867Z,29.51
2017-05-29T12:51:23.781Z,29.6
2017-05-29T12:52:32.751Z,29.67
2017-05-29T12:53:41.668Z,29.71
2017-05-29T12:54:50.582Z,29.74
2017-05-29T12:55:59.498Z,29.64
2017-05-29T12:57:08.415Z,29.64
2017-05-29T12:58:17.344Z,29.67
2017-05-29T12:59:26.260Z,29.57
2017-05-29T13:00:35.186Z,29.7
2017-05-29T13:01:44.121Z,29.97
2017-05-29T13:02:53.055Z,30.02
2017-05-29T13:04:02.457Z,29.94
2017-05-29T13:05:11.374Z,30.16
2017-05-29T13:06:20.304Z,30.23
2017-05-29T13:07:29.617Z,30.1
2017-05-29T13:08:38.537Z,30.23
2017-05-29T13:09:47.882Z,30.24
2017-05-29T13:10:57.151Z,30.32
2017-05-29T13:12:06.116Z,30.37
2017-05-29T13:13:15.044Z,30.35
2017-05-29T13:14:24.296Z,30.61
2017-05-29T13:15:33.363Z,30.54
2017-05-29T13:16:42.286Z,30.89
2017-05-29T13:17:51.201Z,31.17
2017-05-29T13:19:00.447Z,31.16
2017-05-29T13:20:09.382Z,31.04
2017-05-29T13:21:18.351Z,31.01
2017-05-29T13:22:27.268Z,31.35
2017-05-29T13:23:36.195Z,31.51
2017-05-29T13:24:45.112Z,31.48
2017-05-29T13:25:54.028Z,31.56
2017-05-29T13:27:03.095Z,31.72
2017-05-29T13:28:12.342Z,31.72
2017-05-29T13:29:21.261Z,31.73
2017-05-29T13:30:30.181Z,31.66
2017-05-29T13:31:39.419Z,31.81
2017-05-29T13:32:48.812Z,31.92
2017-05-29T13:33:57.733Z,32.04
2017-05-29T13:35:06.651Z,32.01
2017-05-29T13:36:15.573Z,32.15
2017-05-29T13:37:24.497Z,32.28
2017-05-29T13:38:33.583Z,32.14
2017-05-29T13:39:42.830Z,32.26
2017-05-29T13:40:51.746Z,32.55
2017-05-29T13:42:00.991Z,32.48
2017-05-29T13:43:09.908Z,32.4
2017-05-29T13:44:19.077Z,32.56
2017-05-29T13:45:27.999Z,32.41
2017-05-29T13:46:36.923Z,32.22
2017-05-29T13:47:46.493Z,32.28
2017-05-29T13:48:55.407Z,32.28
2017-05-29T13:50:04.973Z,32.43
2017-05-29T13:51:14.215Z,32.48
2017-05-29T13:52:23.786Z,32.51
2017-05-29T13:53:33.034Z,32.33
2017-05-29T13:54:42.278Z,32.32
2017-05-29T13:55:51.499Z,32.29
2017-05-29T13:57:00.416Z,32.57
2017-05-29T13:58:09.336Z,32.6
2017-05-29T13:59:18.253Z,32.66
2017-05-29T14:00:27.494Z,32.43
2017-05-29T14:01:36.469Z,32.26
2017-05-29T14:02:45.386Z,32.01
2017-05-29T14:03:54.306Z,32.21
2017-05-29T14:05:03.554Z,32.21
2017-05-29T14:06:12.797Z,32.44
2017-05-29T14:07:22.243Z,32.38
2017-05-29T14:08:31.160Z,32.35
2017-05-29T14:09:40.078Z,32.28
2017-05-29T14:10:48.998Z,32.41
2017-05-29T14:11:57.911Z,32.22
2017-05-29T14:13:06.980Z,32.44
2017-05-29T14:14:16.222Z,32.72
2017-05-29T14:15:25.145Z,32.93
2017-05-29T14:16:34.396Z,32.97
2017-05-29T14:17:43.376Z,32.93
2017-05-29T14:18:52.694Z,32.88
2017-05-29T14:20:01.620Z,33.07
2017-05-29T14:21:10.868Z,33.21
2017-05-29T14:22:19.793Z,33.39
2017-05-29T14:23:29.036Z,33.26
2017-05-29T14:24:38.009Z,33.23
2017-05-29T14:25:46.932Z,33.41
2017-05-29T14:26:55.870Z,33.29
2017-05-29T14:28:05.120Z,33.04
2017-05-29T14:29:14.037Z,33.09
2017-05-29T14:30:23.683Z,33.12
2017-05-29T14:31:32.601Z,33.04
2017-05-29T14:32:41.524Z,32.44
2017-05-29T14:33:50.444Z,32.22
2017-05-29T14:34:59.370Z,31.93
2017-05-29T14:36:08.443Z,31.99
2017-05-29T14:37:17.382Z,31.76
2017-05-29T14:38:26.334Z,31.78
2017-05-29T14:39:35.295Z,31.78
2017-05-29T14:40:44.549Z,31.92
2017-05-29T14:41:54.454Z,31.88
2017-05-29T14:43:03.376Z,32.04
2017-05-29T14:44:12.293Z,32.4
2017-05-29T14:45:21.247Z,32.44
2017-05-29T14:46:30.494Z,32.56
2017-05-29T14:47:39.563Z,32.52
2017-05-29T14:48:48.492Z,32.69
2017-05-29T14:49:57.409Z,32.93
2017-05-29T14:51:06.332Z,33
2017-05-29T14:52:15.911Z,33.14
2017-05-29T14:53:24.833Z,33.18
2017-05-29T14:54:34.077Z,33.39
2017-05-29T14:55:42.998Z,33.54